Camp Crook, SD (57724)

5:45 AM MDT on October 25, 2014 (GMT -0600)
Baker Municipal | Change Station
CLOSE
Current Station
Airport
Location: Baker,
Elevation: 2972 ft
Nearby Weather Stations

Elev 2972 ft 46.35 °N, 104.26 °W | Updated 54 minutes ago

Clear
Clear
34 °F
Feels Like 31 °F
N
4
Wind Variable Wind from SSE

Today
High -- | Low -- °F
--% Chance of Precip.
Yesterday
High -- | Low -- °F
Precip. -- in
7:25 AM 5:53 PM
Waxing Crescent, 3% visible
Pressure 30.15 in
Visibility 10.0 miles
Clouds Clear
Windchill 31 °F
Dew Point 29 °F
Humidity 82%
Rainfall 0.00 in
Snow Depth Not available.
UV 0 out of 12
Pollen 1.20 out of 12
Air Quality Not available.
Flu Activity Sporadic
METAR KBHK 251051Z AUTO 16003KT 10SM CLR 01/M02 A3013 RMK AO2 SLP210 T00111017

More Conditions Fewer Conditions

Pressure 30.15 in
Visibility 10.0 miles
Clouds Clear
Windchill 31 °F
Dew Point 29 °F
Humidity 82%
Rainfall 0.00 in
Snow Depth Not available.
UV 0 out of 12
Pollen 1.20 out of 12
Air Quality Not available.
Flu Activity Sporadic
METAR KBHK 251051Z AUTO 16003KT 10SM CLR 01/M02 A3013 RMK AO2 SLP210 T00111017

More Conditions Fewer Conditions

10-Day Weather Forecast

Almanac

Astronomy

Oct. 25, 2014 Rise Set
Actual Time 7:25 AM MDT 5:53 PM MDT
Civil Twilight 6:55 AM MDT 6:23 PM MDT
Nautical Twilight 6:20 AM MDT 6:58 PM MDT
Astronomical Twilight 5:46 AM MDT 7:32 PM MDT
Moon 9:10 AM MDT 7:13 PM MDT
Length of Visible Light 11h 28m
Length of Day
10h 27m
Tomorrow will be 2m 58s shorter.
Waxing Crescent, 3% of the Moon is Illuminated
Today
Waxing Crescent
Oct 30
First Quarter
Nov 6
Full
Nov 14
Last Quarter
Nov 22
New

Today's Extremes

State Highs State Lows

Community

WunderPhotos

Upload Photos

1,764,812 photos uploaded!

Nearby

Snow Depth

Station Depth Elevation
Blind Park 0 in 6890 ft

Earthquake Activity

City Distance Mag. Time & Date
No recent earthquake activity has been reported nearby.
Minimum magnitude displayed is 2.5.

Coastal Water Temperatures

Place Temperature
No Stations Reporting

Nearby Weather Stations